sensor_id;sensor_type;location;lat;lon;timestamp;temperature;humidity
18456;DHT22;9357;49.900;8.208;2024-03-22T00:00:19;10.90;99.90
18456;DHT22;9357;49.900;8.208;2024-03-22T00:01:52;10.90;99.90
18456;DHT22;9357;49.900;8.208;2024-03-22T00:03:24;10.90;99.90
18456;DHT22;9357;49.900;8.208;2024-03-22T00:04:56;10.90;99.90
18456;DHT22;9357;49.900;8.208;2024-03-22T00:06:27;10.90;99.90
18456;DHT22;9357;49.900;8.208;2024-03-22T00:07:57;10.90;99.90
18456;DHT22;9357;49.900;8.208;2024-03-22T00:09:29;10.90;99.90
18456;DHT22;9357;49.900;8.208;2024-03-22T00:11:00;10.90;99.90
18456;DHT22;9357;49.900;8.208;2024-03-22T00:12:31;10.90;99.90
18456;DHT22;9357;49.900;8.208;2024-03-22T00:14:03;10.90;99.90
18456;DHT22;9357;49.900;8.208;2024-03-22T00:15:34;10.90;99.90
18456;DHT22;9357;49.900;8.208;2024-03-22T00:17:05;10.90;99.90
18456;DHT22;9357;49.900;8.208;2024-03-22T00:18:38;10.90;99.90
18456;DHT22;9357;49.900;8.208;2024-03-22T00:20:09;10.90;99.90
18456;DHT22;9357;49.900;8.208;2024-03-22T00:21:40;10.90;99.90
18456;DHT22;9357;49.900;8.208;2024-03-22T00:23:12;10.90;99.90
18456;DHT22;9357;49.900;8.208;2024-03-22T00:24:43;10.90;99.90
18456;DHT22;9357;49.900;8.208;2024-03-22T00:26:14;10.80;99.90
18456;DHT22;9357;49.900;8.208;2024-03-22T00:27:46;10.80;99.90
18456;DHT22;9357;49.900;8.208;2024-03-22T00:29:17;10.80;99.90
18456;DHT22;9357;49.900;8.208;2024-03-22T00:30:49;10.80;99.90
18456;DHT22;9357;49.900;8.208;2024-03-22T00:32:19;10.80;99.90
18456;DHT22;9357;49.900;8.208;2024-03-22T00:33:52;10.80;99.90
18456;DHT22;9357;49.900;8.208;2024-03-22T00:35:23;10.80;99.90
18456;DHT22;9357;49.900;8.208;2024-03-22T00:36:54;10.70;99.90
18456;DHT22;9357;49.900;8.208;2024-03-22T00:38:26;10.70;99.90
18456;DHT22;9357;49.900;8.208;2024-03-22T00:39:58;10.70;99.90
18456;DHT22;9357;49.900;8.208;2024-03-22T00:41:28;10.60;99.90
18456;DHT22;9357;49.900;8.208;2024-03-22T00:42:59;10.60;99.90
18456;DHT22;9357;49.900;8.208;2024-03-22T00:44:31;10.50;99.90
18456;DHT22;9357;49.900;8.208;2024-03-22T00:46:02;10.50;99.90
18456;DHT22;9357;49.900;8.208;2024-03-22T00:47:33;10.50;99.90
18456;DHT22;9357;49.900;8.208;2024-03-22T00:49:06;10.50;99.90
18456;DHT22;9357;49.900;8.208;2024-03-22T00:50:37;10.50;99.90
18456;DHT22;9357;49.900;8.208;2024-03-22T00:52:09;10.50;99.90
18456;DHT22;9357;49.900;8.208;2024-03-22T00:53:40;10.50;99.90
18456;DHT22;9357;49.900;8.208;2024-03-22T00:55:10;10.50;99.90
18456;DHT22;9357;49.900;8.208;2024-03-22T00:56:42;10.50;99.90
18456;DHT22;9357;49.900;8.208;2024-03-22T00:58:13;10.50;99.90
18456;DHT22;9357;49.900;8.208;2024-03-22T00:59:44;10.40;99.90
18456;DHT22;9357;49.900;8.208;2024-03-22T01:01:16;10.40;99.90
18456;DHT22;9357;49.900;8.208;2024-03-22T01:02:47;10.50;99.90
18456;DHT22;9357;49.900;8.208;2024-03-22T01:04:19;10.40;99.90
18456;DHT22;9357;49.900;8.208;2024-03-22T01:05:52;10.50;99.90
18456;DHT22;9357;49.900;8.208;2024-03-22T01:07:23;10.50;99.90
18456;DHT22;9357;49.900;8.208;2024-03-22T01:08:53;10.40;99.90
18456;DHT22;9357;49.900;8.208;2024-03-22T01:10:27;10.40;99.90
18456;DHT22;9357;49.900;8.208;2024-03-22T01:11:58;10.40;99.90
18456;DHT22;9357;49.900;8.208;2024-03-22T01:13:29;10.40;99.90
18456;DHT22;9357;49.900;8.208;2024-03-22T01:15:00;10.30;99.90
18456;DHT22;9357;49.900;8.208;2024-03-22T01:16:31;10.30;99.90
18456;DHT22;9357;49.900;8.208;2024-03-22T01:18:02;10.30;99.90
18456;DHT22;9357;49.900;8.208;2024-03-22T01:19:36;10.30;99.90
18456;DHT22;9357;49.900;8.208;2024-03-22T01:21:06;10.20;99.90
18456;DHT22;9357;49.900;8.208;2024-03-22T01:22:38;10.20;99.90
18456;DHT22;9357;49.900;8.208;2024-03-22T01:24:12;10.20;99.90
18456;DHT22;9357;49.900;8.208;2024-03-22T01:25:45;10.20;99.90
18456;DHT22;9357;49.900;8.208;2024-03-22T01:27:16;10.20;99.90
18456;DHT22;9357;49.900;8.208;2024-03-22T01:28:47;10.20;99.90
18456;DHT22;9357;49.900;8.208;2024-03-22T01:30:18;10.10;99.90
18456;DHT22;9357;49.900;8.208;2024-03-22T01:31:50;10.10;99.90
18456;DHT22;9357;49.900;8.208;2024-03-22T01:33:21;10.10;99.90
18456;DHT22;9357;49.900;8.208;2024-03-22T01:34:54;10.10;99.90
18456;DHT22;9357;49.900;8.208;2024-03-22T01:36:25;10.10;99.90
18456;DHT22;9357;49.900;8.208;2024-03-22T01:37:57;10.10;99.90
18456;DHT22;9357;49.900;8.208;2024-03-22T01:39:28;10.10;99.90
18456;DHT22;9357;49.900;8.208;2024-03-22T01:40:59;10.10;99.90
18456;DHT22;9357;49.900;8.208;2024-03-22T01:42:30;10.00;99.90
18456;DHT22;9357;49.900;8.208;2024-03-22T01:44:01;10.00;99.90
18456;DHT22;9357;49.900;8.208;2024-03-22T01:45:33;10.00;99.90
18456;DHT22;9357;49.900;8.208;2024-03-22T01:47:04;10.00;99.90
18456;DHT22;9357;49.900;8.208;2024-03-22T01:48:35;10.00;99.90
18456;DHT22;9357;49.900;8.208;2024-03-22T01:50:09;9.90;99.90
18456;DHT22;9357;49.900;8.208;2024-03-22T01:51:42;9.90;99.90
18456;DHT22;9357;49.900;8.208;2024-03-22T01:53:14;9.90;99.90
18456;DHT22;9357;49.900;8.208;2024-03-22T01:54:46;9.90;99.90
18456;DHT22;9357;49.900;8.208;2024-03-22T01:56:17;9.90;99.90
18456;DHT22;9357;49.900;8.208;2024-03-22T01:57:49;9.80;99.90
18456;DHT22;9357;49.900;8.208;2024-03-22T01:59:21;9.80;99.90
18456;DHT22;9357;49.900;8.208;2024-03-22T02:00:52;9.70;99.90
18456;DHT22;9357;49.900;8.208;2024-03-22T02:02:24;9.70;99.90
18456;DHT22;9357;49.900;8.208;2024-03-22T02:03:55;9.70;99.90
18456;DHT22;9357;49.900;8.208;2024-03-22T02:05:28;9.70;99.90
18456;DHT22;9357;49.900;8.208;2024-03-22T02:07:00;9.70;99.90
18456;DHT22;9357;49.900;8.208;2024-03-22T02:08:31;9.70;99.90
18456;DHT22;9357;49.900;8.208;2024-03-22T02:10:02;9.70;99.90
18456;DHT22;9357;49.900;8.208;2024-03-22T02:11:34;9.70;99.90
18456;DHT22;9357;49.900;8.208;2024-03-22T02:13:06;9.70;99.90
18456;DHT22;9357;49.900;8.208;2024-03-22T02:14:37;9.70;99.90
18456;DHT22;9357;49.900;8.208;2024-03-22T02:16:09;9.70;99.90
18456;DHT22;9357;49.900;8.208;2024-03-22T02:17:40;9.60;99.90
18456;DHT22;9357;49.900;8.208;2024-03-22T02:19:11;9.60;99.90
18456;DHT22;9357;49.900;8.208;2024-03-22T02:20:44;9.60;99.90
18456;DHT22;9357;49.900;8.208;2024-03-22T02:22:15;9.60;99.90
18456;DHT22;9357;49.900;8.208;2024-03-22T02:23:47;9.60;99.90
18456;DHT22;9357;49.900;8.208;2024-03-22T02:25:19;9.60;99.90
18456;DHT22;9357;49.900;8.208;2024-03-22T02:26:50;9.60;99.90
18456;DHT22;9357;49.900;8.208;2024-03-22T02:28:21;9.60;99.90
18456;DHT22;9357;49.900;8.208;2024-03-22T02:29:53;9.60;99.90
18456;DHT22;9357;49.900;8.208;2024-03-22T02:31:24;9.60;99.90
18456;DHT22;9357;49.900;8.208;2024-03-22T02:32:56;9.50;99.90
18456;DHT22;9357;49.900;8.208;2024-03-22T02:34:27;9.50;99.90
18456;DHT22;9357;49.900;8.208;2024-03-22T02:35:58;9.50;99.90
18456;DHT22;9357;49.900;8.208;2024-03-22T02:37:29;9.50;99.90
18456;DHT22;9357;49.900;8.208;2024-03-22T02:39:04;9.50;99.90
18456;DHT22;9357;49.900;8.208;2024-03-22T02:40:35;9.50;99.90
18456;DHT22;9357;49.900;8.208;2024-03-22T02:42:07;9.50;99.90
18456;DHT22;9357;49.900;8.208;2024-03-22T02:43:37;9.40;99.90
18456;DHT22;9357;49.900;8.208;2024-03-22T02:45:09;9.40;99.90
18456;DHT22;9357;49.900;8.208;2024-03-22T02:46:40;9.40;99.90
18456;DHT22;9357;49.900;8.208;2024-03-22T02:48:11;9.30;99.90
18456;DHT22;9357;49.900;8.208;2024-03-22T02:49:43;9.40;99.90
18456;DHT22;9357;49.900;8.208;2024-03-22T02:51:14;9.30;99.90
18456;DHT22;9357;49.900;8.208;2024-03-22T02:52:46;9.30;99.90
18456;DHT22;9357;49.900;8.208;2024-03-22T02:54:18;9.30;99.90
18456;DHT22;9357;49.900;8.208;2024-03-22T02:55:49;9.30;99.90
18456;DHT22;9357;49.900;8.208;2024-03-22T02:57:21;9.30;99.90
18456;DHT22;9357;49.900;8.208;2024-03-22T02:58:52;9.30;99.90
18456;DHT22;9357;49.900;8.208;2024-03-22T03:00:23;9.30;99.90
18456;DHT22;9357;49.900;8.208;2024-03-22T03:01:54;9.30;99.90
18456;DHT22;9357;49.900;8.208;2024-03-22T03:03:25;9.20;99.90
18456;DHT22;9357;49.900;8.208;2024-03-22T03:04:57;9.20;99.90
18456;DHT22;9357;49.900;8.208;2024-03-22T03:06:28;9.20;99.90
18456;DHT22;9357;49.900;8.208;2024-03-22T03:07:59;9.20;99.90
18456;DHT22;9357;49.900;8.208;2024-03-22T03:09:32;9.20;99.90
18456;DHT22;9357;49.900;8.208;2024-03-22T03:11:03;9.20;99.90
18456;DHT22;9357;49.900;8.208;2024-03-22T03:12:34;9.20;99.90
18456;DHT22;9357;49.900;8.208;2024-03-22T03:14:06;9.20;99.90
18456;DHT22;9357;49.900;8.208;2024-03-22T03:15:37;9.20;99.90
18456;DHT22;9357;49.900;8.208;2024-03-22T03:17:08;9.30;99.90
18456;DHT22;9357;49.900;8.208;2024-03-22T03:18:40;9.30;99.90
18456;DHT22;9357;49.900;8.208;2024-03-22T03:20:11;9.30;99.90
18456;DHT22;9357;49.900;8.208;2024-03-22T03:21:44;9.30;99.90
18456;DHT22;9357;49.900;8.208;2024-03-22T03:23:16;9.30;99.90
18456;DHT22;9357;49.900;8.208;2024-03-22T03:24:48;9.30;99.90
18456;DHT22;9357;49.900;8.208;2024-03-22T03:26:19;9.30;99.90
18456;DHT22;9357;49.900;8.208;2024-03-22T03:27:50;9.40;99.90
18456;DHT22;9357;49.900;8.208;2024-03-22T03:29:21;9.30;99.90
18456;DHT22;9357;49.900;8.208;2024-03-22T03:30:53;9.40;99.90
18456;DHT22;9357;49.900;8.208;2024-03-22T03:32:24;9.40;99.90
18456;DHT22;9357;49.900;8.208;2024-03-22T03:33:56;9.40;99.90
18456;DHT22;9357;49.900;8.208;2024-03-22T03:35:27;9.40;99.90
18456;DHT22;9357;49.900;8.208;2024-03-22T03:36:59;9.40;99.90
18456;DHT22;9357;49.900;8.208;2024-03-22T03:38:32;9.40;99.90
18456;DHT22;9357;49.900;8.208;2024-03-22T03:40:05;9.30;99.90
18456;DHT22;9357;49.900;8.208;2024-03-22T03:41:36;9.50;99.90
18456;DHT22;9357;49.900;8.208;2024-03-22T03:43:08;9.50;99.90
18456;DHT22;9357;49.900;8.208;2024-03-22T03:44:39;9.50;99.90
18456;DHT22;9357;49.900;8.208;2024-03-22T03:46:12;9.50;99.90
18456;DHT22;9357;49.900;8.208;2024-03-22T03:47:42;9.50;99.90
18456;DHT22;9357;49.900;8.208;2024-03-22T03:49:14;9.50;99.90
18456;DHT22;9357;49.900;8.208;2024-03-22T03:50:51;9.60;99.90
18456;DHT22;9357;49.900;8.208;2024-03-22T03:52:22;9.60;99.90
18456;DHT22;9357;49.900;8.208;2024-03-22T03:53:54;9.60;99.90
18456;DHT22;9357;49.900;8.208;2024-03-22T03:55:26;9.60;99.90
18456;DHT22;9357;49.900;8.208;2024-03-22T03:56:57;9.60;99.90
18456;DHT22;9357;49.900;8.208;2024-03-22T03:58:29;9.60;99.90
18456;DHT22;9357;49.900;8.208;2024-03-22T04:00:00;9.70;99.90
18456;DHT22;9357;49.900;8.208;2024-03-22T04:01:31;9.70;99.90
18456;DHT22;9357;49.900;8.208;2024-03-22T04:03:03;9.70;99.90
18456;DHT22;9357;49.900;8.208;2024-03-22T04:04:34;9.70;99.90
18456;DHT22;9357;49.900;8.208;2024-03-22T04:06:06;9.70;99.90
18456;DHT22;9357;49.900;8.208;2024-03-22T04:07:37;9.80;99.90
18456;DHT22;9357;49.900;8.208;2024-03-22T04:09:09;9.70;99.90
18456;DHT22;9357;49.900;8.208;2024-03-22T04:10:51;9.70;99.90
18456;DHT22;9357;49.900;8.208;2024-03-22T04:12:22;9.70;99.90
18456;DHT22;9357;49.900;8.208;2024-03-22T04:13:54;9.70;99.90
18456;DHT22;9357;49.900;8.208;2024-03-22T04:15:25;9.80;99.90
18456;DHT22;9357;49.900;8.208;2024-03-22T04:16:56;9.80;99.90
18456;DHT22;9357;49.900;8.208;2024-03-22T04:18:27;9.80;99.90
18456;DHT22;9357;49.900;8.208;2024-03-22T04:19:58;9.80;99.90
18456;DHT22;9357;49.900;8.208;2024-03-22T04:21:30;9.70;99.90
18456;DHT22;9357;49.900;8.208;2024-03-22T04:23:01;9.80;99.90
18456;DHT22;9357;49.900;8.208;2024-03-22T04:24:32;9.80;99.90
18456;DHT22;9357;49.900;8.208;2024-03-22T04:26:05;9.80;99.90
18456;DHT22;9357;49.900;8.208;2024-03-22T04:27:36;9.80;99.90
18456;DHT22;9357;49.900;8.208;2024-03-22T04:29:07;9.80;99.90
18456;DHT22;9357;49.900;8.208;2024-03-22T04:30:39;9.80;99.90
18456;DHT22;9357;49.900;8.208;2024-03-22T04:32:10;9.90;99.90
18456;DHT22;9357;49.900;8.208;2024-03-22T04:33:42;9.90;99.90
18456;DHT22;9357;49.900;8.208;2024-03-22T04:35:13;9.90;99.90
18456;DHT22;9357;49.900;8.208;2024-03-22T04:36:44;9.90;99.90
18456;DHT22;9357;49.900;8.208;2024-03-22T04:38:16;9.90;99.90
18456;DHT22;9357;49.900;8.208;2024-03-22T04:39:47;9.90;99.90
18456;DHT22;9357;49.900;8.208;2024-03-22T04:41:20;9.90;99.90
18456;DHT22;9357;49.900;8.208;2024-03-22T04:42:51;9.90;99.90
18456;DHT22;9357;49.900;8.208;2024-03-22T04:44:22;9.90;99.90
18456;DHT22;9357;49.900;8.208;2024-03-22T04:45:55;9.90;99.90
18456;DHT22;9357;49.900;8.208;2024-03-22T04:47:26;9.90;99.90
18456;DHT22;9357;49.900;8.208;2024-03-22T04:48:57;9.90;99.90
18456;DHT22;9357;49.900;8.208;2024-03-22T04:50:29;10.00;99.90
18456;DHT22;9357;49.900;8.208;2024-03-22T04:52:00;10.00;99.90
18456;DHT22;9357;49.900;8.208;2024-03-22T04:53:32;10.00;99.90
18456;DHT22;9357;49.900;8.208;2024-03-22T04:55:04;10.00;99.90
18456;DHT22;9357;49.900;8.208;2024-03-22T04:56:36;10.00;99.90
18456;DHT22;9357;49.900;8.208;2024-03-22T04:58:08;10.00;99.90
18456;DHT22;9357;49.900;8.208;2024-03-22T04:59:39;10.00;99.90
18456;DHT22;9357;49.900;8.208;2024-03-22T05:01:10;10.10;99.90
18456;DHT22;9357;49.900;8.208;2024-03-22T05:02:43;10.10;99.90
18456;DHT22;9357;49.900;8.208;2024-03-22T05:04:14;10.10;99.90
18456;DHT22;9357;49.900;8.208;2024-03-22T05:05:44;10.10;99.90
18456;DHT22;9357;49.900;8.208;2024-03-22T05:07:16;10.10;99.90
18456;DHT22;9357;49.900;8.208;2024-03-22T05:08:47;10.10;99.90
18456;DHT22;9357;49.900;8.208;2024-03-22T05:10:18;10.10;99.90
18456;DHT22;9357;49.900;8.208;2024-03-22T05:11:51;10.10;99.90
18456;DHT22;9357;49.900;8.208;2024-03-22T05:13:22;10.10;99.90
18456;DHT22;9357;49.900;8.208;2024-03-22T05:14:54;10.10;99.90
18456;DHT22;9357;49.900;8.208;2024-03-22T05:16:25;10.10;99.90
18456;DHT22;9357;49.900;8.208;2024-03-22T05:17:57;10.10;99.90
18456;DHT22;9357;49.900;8.208;2024-03-22T05:19:29;10.10;99.90
18456;DHT22;9357;49.900;8.208;2024-03-22T05:21:00;10.10;99.90
18456;DHT22;9357;49.900;8.208;2024-03-22T05:22:32;10.10;99.90
18456;DHT22;9357;49.900;8.208;2024-03-22T05:24:03;10.10;99.90
18456;DHT22;9357;49.900;8.208;2024-03-22T05:25:34;10.00;99.90
18456;DHT22;9357;49.900;8.208;2024-03-22T05:27:07;10.10;99.90
18456;DHT22;9357;49.900;8.208;2024-03-22T05:28:38;10.10;99.90
18456;DHT22;9357;49.900;8.208;2024-03-22T05:30:11;10.10;99.90
18456;DHT22;9357;49.900;8.208;2024-03-22T05:31:46;10.10;99.90
18456;DHT22;9357;49.900;8.208;2024-03-22T05:33:17;10.10;99.90
18456;DHT22;9357;49.900;8.208;2024-03-22T05:34:49;10.10;99.90
18456;DHT22;9357;49.900;8.208;2024-03-22T05:36:20;10.10;99.90
18456;DHT22;9357;49.900;8.208;2024-03-22T05:37:51;10.10;99.90
18456;DHT22;9357;49.900;8.208;2024-03-22T05:39:22;10.20;99.90
18456;DHT22;9357;49.900;8.208;2024-03-22T05:40:53;10.10;99.90
18456;DHT22;9357;49.900;8.208;2024-03-22T05:42:26;10.10;99.90
18456;DHT22;9357;49.900;8.208;2024-03-22T05:43:58;10.20;99.90
18456;DHT22;9357;49.900;8.208;2024-03-22T05:45:28;10.20;99.90
18456;DHT22;9357;49.900;8.208;2024-03-22T05:46:59;10.20;99.90
18456;DHT22;9357;49.900;8.208;2024-03-22T05:48:31;10.20;99.90
18456;DHT22;9357;49.900;8.208;2024-03-22T05:50:03;10.20;99.90
18456;DHT22;9357;49.900;8.208;2024-03-22T05:51:34;10.20;99.90
18456;DHT22;9357;49.900;8.208;2024-03-22T05:53:05;10.30;99.90
18456;DHT22;9357;49.900;8.208;2024-03-22T05:54:36;10.20;99.90
18456;DHT22;9357;49.900;8.208;2024-03-22T05:56:07;10.30;99.90
18456;DHT22;9357;49.900;8.208;2024-03-22T05:57:40;10.30;99.90
18456;DHT22;9357;49.900;8.208;2024-03-22T05:59:11;10.30;99.90
18456;DHT22;9357;49.900;8.208;2024-03-22T06:00:42;10.30;99.90
18456;DHT22;9357;49.900;8.208;2024-03-22T06:02:14;10.30;99.90
18456;DHT22;9357;49.900;8.208;2024-03-22T06:03:45;10.40;99.90
18456;DHT22;9357;49.900;8.208;2024-03-22T06:05:16;10.40;99.90
18456;DHT22;9357;49.900;8.208;2024-03-22T06:06:48;10.40;99.90
18456;DHT22;9357;49.900;8.208;2024-03-22T06:08:20;10.40;99.90
18456;DHT22;9357;49.900;8.208;2024-03-22T06:09:52;10.50;99.90
18456;DHT22;9357;49.900;8.208;2024-03-22T06:11:23;10.50;99.90
18456;DHT22;9357;49.900;8.208;2024-03-22T06:12:56;10.60;99.90
18456;DHT22;9357;49.900;8.208;2024-03-22T06:14:27;10.60;99.90
18456;DHT22;9357;49.900;8.208;2024-03-22T06:15:59;10.60;99.90
18456;DHT22;9357;49.900;8.208;2024-03-22T06:17:29;10.60;99.90
18456;DHT22;9357;49.900;8.208;2024-03-22T06:19:00;10.70;99.90
18456;DHT22;9357;49.900;8.208;2024-03-22T06:20:34;10.70;99.90
18456;DHT22;9357;49.900;8.208;2024-03-22T06:22:04;10.70;99.90
18456;DHT22;9357;49.900;8.208;2024-03-22T06:23:35;10.80;99.90
18456;DHT22;9357;49.900;8.208;2024-03-22T06:25:07;10.80;99.90
18456;DHT22;9357;49.900;8.208;2024-03-22T06:26:38;10.80;99.90
18456;DHT22;9357;49.900;8.208;2024-03-22T06:28:11;10.90;99.90
18456;DHT22;9357;49.900;8.208;2024-03-22T06:29:42;10.90;99.90
18456;DHT22;9357;49.900;8.208;2024-03-22T06:31:14;10.90;99.90
18456;DHT22;9357;49.900;8.208;2024-03-22T06:32:45;10.90;99.90
18456;DHT22;9357;49.900;8.208;2024-03-22T06:34:16;10.90;99.90
18456;DHT22;9357;49.900;8.208;2024-03-22T06:35:48;10.90;99.90
18456;DHT22;9357;49.900;8.208;2024-03-22T06:37:19;10.90;99.90
18456;DHT22;9357;49.900;8.208;2024-03-22T06:38:49;10.90;99.90
18456;DHT22;9357;49.900;8.208;2024-03-22T06:40:21;11.00;99.90
18456;DHT22;9357;49.900;8.208;2024-03-22T06:41:52;11.00;99.90
18456;DHT22;9357;49.900;8.208;2024-03-22T06:43:24;11.00;99.90
18456;DHT22;9357;49.900;8.208;2024-03-22T06:44:56;11.00;99.90
18456;DHT22;9357;49.900;8.208;2024-03-22T06:46:27;11.00;99.90
18456;DHT22;9357;49.900;8.208;2024-03-22T06:47:58;11.10;99.90
18456;DHT22;9357;49.900;8.208;2024-03-22T06:49:30;11.10;99.90
18456;DHT22;9357;49.900;8.208;2024-03-22T06:51:01;11.20;99.90
18456;DHT22;9357;49.900;8.208;2024-03-22T06:52:32;11.20;99.90
18456;DHT22;9357;49.900;8.208;2024-03-22T06:54:04;11.20;99.90
18456;DHT22;9357;49.900;8.208;2024-03-22T06:55:34;11.30;99.90
18456;DHT22;9357;49.900;8.208;2024-03-22T06:57:06;11.30;99.90
18456;DHT22;9357;49.900;8.208;2024-03-22T06:58:39;11.30;99.90
18456;DHT22;9357;49.900;8.208;2024-03-22T07:00:12;11.30;99.90
18456;DHT22;9357;49.900;8.208;2024-03-22T07:01:44;11.40;99.90
18456;DHT22;9357;49.900;8.208;2024-03-22T07:03:16;11.40;99.90
18456;DHT22;9357;49.900;8.208;2024-03-22T07:04:47;11.40;99.90
18456;DHT22;9357;49.900;8.208;2024-03-22T07:06:18;11.40;99.90
18456;DHT22;9357;49.900;8.208;2024-03-22T07:07:51;11.40;99.90
18456;DHT22;9357;49.900;8.208;2024-03-22T07:09:24;11.40;99.90
18456;DHT22;9357;49.900;8.208;2024-03-22T07:10:58;11.40;99.90
18456;DHT22;9357;49.900;8.208;2024-03-22T07:12:30;11.50;99.90
18456;DHT22;9357;49.900;8.208;2024-03-22T07:14:04;11.50;99.90
18456;DHT22;9357;49.900;8.208;2024-03-22T07:15:34;11.50;99.90
18456;DHT22;9357;49.900;8.208;2024-03-22T07:17:06;11.50;99.90
18456;DHT22;9357;49.900;8.208;2024-03-22T07:18:37;11.50;99.90
18456;DHT22;9357;49.900;8.208;2024-03-22T07:20:09;11.60;99.90
18456;DHT22;9357;49.900;8.208;2024-03-22T07:21:41;11.60;99.90
18456;DHT22;9357;49.900;8.208;2024-03-22T07:23:12;11.60;99.90
18456;DHT22;9357;49.900;8.208;2024-03-22T07:24:44;11.60;99.90
18456;DHT22;9357;49.900;8.208;2024-03-22T07:26:15;11.60;99.90
18456;DHT22;9357;49.900;8.208;2024-03-22T07:27:46;11.70;99.90
18456;DHT22;9357;49.900;8.208;2024-03-22T07:29:21;11.70;99.90
18456;DHT22;9357;49.900;8.208;2024-03-22T07:30:52;11.70;99.90
18456;DHT22;9357;49.900;8.208;2024-03-22T07:32:22;11.70;99.90
18456;DHT22;9357;49.900;8.208;2024-03-22T07:33:54;11.80;99.90
18456;DHT22;9357;49.900;8.208;2024-03-22T07:35:26;11.70;99.90
18456;DHT22;9357;49.900;8.208;2024-03-22T07:36:58;11.80;99.90
18456;DHT22;9357;49.900;8.208;2024-03-22T07:38:29;11.80;99.90
18456;DHT22;9357;49.900;8.208;2024-03-22T07:40:00;11.80;99.90
18456;DHT22;9357;49.900;8.208;2024-03-22T07:41:32;11.80;99.90
18456;DHT22;9357;49.900;8.208;2024-03-22T07:43:03;11.80;99.90
18456;DHT22;9357;49.900;8.208;2024-03-22T07:44:37;11.80;99.90
18456;DHT22;9357;49.900;8.208;2024-03-22T07:46:09;11.80;99.90
18456;DHT22;9357;49.900;8.208;2024-03-22T07:47:41;11.80;99.90
18456;DHT22;9357;49.900;8.208;2024-03-22T07:49:13;11.80;99.90
18456;DHT22;9357;49.900;8.208;2024-03-22T07:50:44;11.80;99.90
18456;DHT22;9357;49.900;8.208;2024-03-22T07:52:15;11.80;99.90
18456;DHT22;9357;49.900;8.208;2024-03-22T07:53:46;11.90;99.90
18456;DHT22;9357;49.900;8.208;2024-03-22T07:55:18;11.90;99.90
18456;DHT22;9357;49.900;8.208;2024-03-22T07:56:49;11.90;99.90
18456;DHT22;9357;49.900;8.208;2024-03-22T07:58:21;11.90;99.90
18456;DHT22;9357;49.900;8.208;2024-03-22T07:59:53;11.90;99.90
18456;DHT22;9357;49.900;8.208;2024-03-22T08:01:24;11.90;99.90
18456;DHT22;9357;49.900;8.208;2024-03-22T08:02:56;12.00;99.90
18456;DHT22;9357;49.900;8.208;2024-03-22T08:04:27;11.90;99.90
18456;DHT22;9357;49.900;8.208;2024-03-22T08:05:58;12.00;99.90
18456;DHT22;9357;49.900;8.208;2024-03-22T08:07:30;12.00;99.90
18456;DHT22;9357;49.900;8.208;2024-03-22T08:09:01;12.00;99.90
18456;DHT22;9357;49.900;8.208;2024-03-22T08:10:34;12.00;99.90
18456;DHT22;9357;49.900;8.208;2024-03-22T08:12:06;12.00;99.90
18456;DHT22;9357;49.900;8.208;2024-03-22T08:13:37;12.10;99.90
18456;DHT22;9357;49.900;8.208;2024-03-22T08:15:10;12.10;99.90
18456;DHT22;9357;49.900;8.208;2024-03-22T08:16:42;12.10;99.90
18456;DHT22;9357;49.900;8.208;2024-03-22T08:18:13;12.10;99.90
18456;DHT22;9357;49.900;8.208;2024-03-22T08:19:45;12.20;99.90
18456;DHT22;9357;49.900;8.208;2024-03-22T08:21:16;12.20;99.90
18456;DHT22;9357;49.900;8.208;2024-03-22T08:22:47;12.20;99.90
18456;DHT22;9357;49.900;8.208;2024-03-22T08:24:19;12.20;99.90
18456;DHT22;9357;49.900;8.208;2024-03-22T08:25:50;12.10;99.90
18456;DHT22;9357;49.900;8.208;2024-03-22T08:27:20;12.20;99.90
18456;DHT22;9357;49.900;8.208;2024-03-22T08:28:52;12.20;99.90
18456;DHT22;9357;49.900;8.208;2024-03-22T08:30:24;12.20;99.90
18456;DHT22;9357;49.900;8.208;2024-03-22T08:31:56;12.20;99.90
18456;DHT22;9357;49.900;8.208;2024-03-22T08:33:27;12.30;99.90
18456;DHT22;9357;49.900;8.208;2024-03-22T08:34:58;12.30;99.90
18456;DHT22;9357;49.900;8.208;2024-03-22T08:36:30;12.30;99.90
18456;DHT22;9357;49.900;8.208;2024-03-22T08:38:01;12.30;99.90
18456;DHT22;9357;49.900;8.208;2024-03-22T08:39:32;12.30;99.90
18456;DHT22;9357;49.900;8.208;2024-03-22T08:41:03;12.30;99.90
18456;DHT22;9357;49.900;8.208;2024-03-22T08:42:34;12.30;99.90
18456;DHT22;9357;49.900;8.208;2024-03-22T08:44:06;12.30;99.90
18456;DHT22;9357;49.900;8.208;2024-03-22T08:45:39;12.30;99.90
18456;DHT22;9357;49.900;8.208;2024-03-22T08:47:10;12.30;99.90
18456;DHT22;9357;49.900;8.208;2024-03-22T08:48:42;12.40;99.90
18456;DHT22;9357;49.900;8.208;2024-03-22T08:50:13;12.40;99.90
18456;DHT22;9357;49.900;8.208;2024-03-22T08:51:45;12.40;99.90
18456;DHT22;9357;49.900;8.208;2024-03-22T08:53:18;12.50;99.90
18456;DHT22;9357;49.900;8.208;2024-03-22T08:54:49;12.60;99.90
18456;DHT22;9357;49.900;8.208;2024-03-22T08:56:21;12.60;99.90
18456;DHT22;9357;49.900;8.208;2024-03-22T08:57:52;12.70;99.90
18456;DHT22;9357;49.900;8.208;2024-03-22T08:59:24;12.80;99.90
18456;DHT22;9357;49.900;8.208;2024-03-22T09:00:56;12.90;99.90
18456;DHT22;9357;49.900;8.208;2024-03-22T09:02:27;13.00;99.90
18456;DHT22;9357;49.900;8.208;2024-03-22T09:03:59;13.10;99.90
18456;DHT22;9357;49.900;8.208;2024-03-22T09:05:30;13.10;99.90
18456;DHT22;9357;49.900;8.208;2024-03-22T09:07:01;13.20;99.90
18456;DHT22;9357;49.900;8.208;2024-03-22T09:08:33;13.30;99.90
18456;DHT22;9357;49.900;8.208;2024-03-22T09:10:05;13.30;99.90
18456;DHT22;9357;49.900;8.208;2024-03-22T09:11:37;13.40;99.90
18456;DHT22;9357;49.900;8.208;2024-03-22T09:13:09;13.40;99.90
18456;DHT22;9357;49.900;8.208;2024-03-22T09:14:43;13.40;99.90
18456;DHT22;9357;49.900;8.208;2024-03-22T09:16:16;13.50;99.90
18456;DHT22;9357;49.900;8.208;2024-03-22T09:17:47;13.50;99.90
18456;DHT22;9357;49.900;8.208;2024-03-22T09:19:18;13.60;99.90
18456;DHT22;9357;49.900;8.208;2024-03-22T09:20:49;13.60;99.90
18456;DHT22;9357;49.900;8.208;2024-03-22T09:22:20;13.70;99.90
18456;DHT22;9357;49.900;8.208;2024-03-22T09:23:52;13.80;99.90
18456;DHT22;9357;49.900;8.208;2024-03-22T09:25:23;13.80;99.90
18456;DHT22;9357;49.900;8.208;2024-03-22T09:26:55;13.90;99.90
18456;DHT22;9357;49.900;8.208;2024-03-22T09:28:26;14.00;99.90
18456;DHT22;9357;49.900;8.208;2024-03-22T09:29:57;14.10;99.90
18456;DHT22;9357;49.900;8.208;2024-03-22T09:31:30;14.10;99.90
18456;DHT22;9357;49.900;8.208;2024-03-22T09:33:03;14.20;99.90
18456;DHT22;9357;49.900;8.208;2024-03-22T09:34:34;14.30;99.90
18456;DHT22;9357;49.900;8.208;2024-03-22T09:36:06;14.30;99.90
18456;DHT22;9357;49.900;8.208;2024-03-22T09:37:38;14.40;99.90
18456;DHT22;9357;49.900;8.208;2024-03-22T09:39:09;14.50;99.90
18456;DHT22;9357;49.900;8.208;2024-03-22T09:40:42;14.60;99.90
18456;DHT22;9357;49.900;8.208;2024-03-22T09:42:16;14.80;99.90
18456;DHT22;9357;49.900;8.208;2024-03-22T09:43:49;14.80;99.90
18456;DHT22;9357;49.900;8.208;2024-03-22T09:45:22;15.00;99.90
18456;DHT22;9357;49.900;8.208;2024-03-22T09:46:55;15.00;99.90
18456;DHT22;9357;49.900;8.208;2024-03-22T09:48:28;15.10;99.90
18456;DHT22;9357;49.900;8.208;2024-03-22T09:50:01;15.10;99.90